Terminal Aerodrome Forecast
Issued by NWS Wilmington, OH

Current Version | Previous Version | Graphics & Text | Print | Product List | Glossary On
Versions: 1 2 3 4 5 6 7 8 9 10 11 12 13 14 15 16 17 18 19 20
000
FTUS41 KILN 262300
TAFILN
TAF
KILN 262328Z 2700/2724 33005KT P6SM BKN200
     FM270500 VRB03KT P6SM BKN080
     FM271600 35009KT P6SM SCT080
      TEMPO 2720/2724 BKN025=

USA.gov is the U.S. government's official web portal to all federal, state and local government web resources and services.